Glacier Spirit — WDC5172 — position and weather

sailwx.info

Track history (hours):
 
Tides and Currents Weather Stations Pressure Air Temp Water Temp Dewpoint Dewpoint Depression Visibility Wind Speed Wind Dir Waves Ship Positions

Glacier Spirit

Owner: Puget Sound Express, Inc., Port Townsend, WA. More information available from US FCC via Universal Licensing System and Coast Guard Vessel Documentation Center.

Last reported at 2017-Sep-27 19:43 UTC. Time now 2017-Nov-21 19:28 UTC.
Position N 48°26' W 123°05'.
Warning: this ship's position is 54 days out of date.

Date/timePositionNaut miles runAvg speedWind from/ knotsBaromVisibWave heightAir tempDewpointWater temp
2017-Sep-27 19:43N 48°26' W 123°05'211.4
2017-Sep-27 19:30N 48°28' W 123°06'1 1.6
2017-Sep-27 19:00N 48°28' W 123°05'1 2.2
2017-Sep-27 18:30N 48°29' W 123°07'  
2017-Sep-24 23:03N 48°27' W 123°05'218.8
2017-Sep-24 22:58N 48°28' W 123°06'919.4
2017-Sep-24 22:30N 48°36' W 123°13'7 5.5
2017-Sep-24 21:10N 48°34' W 123°02'212.1
2017-Sep-24 20:59N 48°32' W 123°01'0 0.2
2017-Sep-24 19:58N 48°32' W 123°01'0 0.0
2017-Sep-24 19:22N 48°32' W 123°01'0 0.0
2017-Sep-24 18:59N 48°32' W 123°01'4 7.4
2017-Sep-24 18:30N 48°29' W 122°58'4 7.0
2017-Sep-24 17:56N 48°28' W 123°04'5 0.2
2017-Sep-23 22:39N 48°25' W 122°58'212.1
2017-Sep-23 22:29N 48°27' W 122°60'4 9.0
2017-Sep-23 22:00N 48°31' W 122°58'3 5.3
2017-Sep-23 21:30N 48°32' W 123°01'0 0.0
2017-Sep-23 20:48N 48°32' W 123°01'0 0.0
2017-Sep-23 20:24N 48°32' W 123°01'0 0.0
2017-Sep-23 19:42N 48°32' W 123°01'7 0.2
2017-Sep-21 22:12N 48°31' W 122°51'316.4
2017-Sep-21 22:00N 48°34' W 122°52'611.9
2017-Sep-21 21:30N 48°32' W 123°01'0 0.1
2017-Sep-21 20:55N 48°32' W 123°01'0 0.0
2017-Sep-21 20:19N 48°32' W 123°01'0 0.0
2017-Sep-21 19:55N 48°32' W 123°01'0 0.0
2017-Sep-21 19:30N 48°32' W 123°01'5 9.8
2017-Sep-21 19:00N 48°28' W 122°57'6 0.3
2017-Sep-20 22:20N 48°28' W 122°48'3 6.9
2017-Sep-20 21:52N 48°31' W 122°51'513.2
2017-Sep-20 21:30N 48°35' W 122°54'510.1
2017-Sep-20 21:00N 48°32' W 123°01'0 0.5
2017-Sep-20 20:25N 48°32' W 123°01'0 0.0
2017-Sep-20 19:52N 48°32' W 123°01'0 0.0
2017-Sep-20 19:28N 48°32' W 123°01'0 0.0
2017-Sep-20 19:00N 48°32' W 123°01'4 8.7
2017-Sep-20 18:30N 48°28' W 122°58'4 7.7
2017-Sep-20 17:57N 48°28' W 123°04'8 0.4
2017-Sep-19 21:11N 48°24' W 122°55'317.5
2017-Sep-19 20:59N 48°27' W 122°57'612.8
2017-Sep-19 20:30N 48°32' W 122°60'1 1.5
2017-Sep-19 19:59N 48°32' W 123°01'0 0.0
2017-Sep-19 19:29N 48°32' W 123°01'0 0.0
2017-Sep-19 18:50N 48°32' W 123°01'0 0.0
2017-Sep-19 18:23N 48°32' W 123°01'3 8.0
2017-Sep-19 17:59N 48°31' W 122°57'611.6
2017-Sep-19 17:29N 48°25' W 122°54'31 1.4
2017-Sep-18 19:22N 47°57' W 122°35'1 2.0
2017-Sep-18 19:00N 47°56' W 122°34'1 1.2
2017-Sep-18 18:29N 47°56' W 122°35'  
Track history (hours):
 
Tides and Currents Weather Stations Pressure Air Temp Water Temp Dewpoint Dewpoint Depression Visibility Wind Speed Wind Dir Waves Ship Positions

Glacier Spirit

Owner: Puget Sound Express, Inc., Port Townsend, WA. More information available from US FCC via Universal Licensing System and Coast Guard Vessel Documentation Center.

Last reported at 2017-Sep-27 19:43 UTC. Time now 2017-Nov-21 19:28 UTC.
Position N 48°26' W 123°05'.
Warning: this ship's position is 54 days out of date.

Date/timePositionNaut miles runAvg speedWind from/ knotsBaromVisibWave heightAir tempDewpointWater temp
2017-Sep-27 19:43N 48°26' W 123°05'211.4
2017-Sep-27 19:30N 48°28' W 123°06'1 1.6
2017-Sep-27 19:00N 48°28' W 123°05'1 2.2
2017-Sep-27 18:30N 48°29' W 123°07'  
2017-Sep-24 23:03N 48°27' W 123°05'218.8
2017-Sep-24 22:58N 48°28' W 123°06'919.4
2017-Sep-24 22:30N 48°36' W 123°13'7 5.5
2017-Sep-24 21:10N 48°34' W 123°02'212.1
2017-Sep-24 20:59N 48°32' W 123°01'0 0.2
2017-Sep-24 19:58N 48°32' W 123°01'0 0.0
2017-Sep-24 19:22N 48°32' W 123°01'0 0.0
2017-Sep-24 18:59N 48°32' W 123°01'4 7.4
2017-Sep-24 18:30N 48°29' W 122°58'4 7.0
2017-Sep-24 17:56N 48°28' W 123°04'5 0.2
2017-Sep-23 22:39N 48°25' W 122°58'212.1
2017-Sep-23 22:29N 48°27' W 122°60'4 9.0
2017-Sep-23 22:00N 48°31' W 122°58'3 5.3
2017-Sep-23 21:30N 48°32' W 123°01'0 0.0
2017-Sep-23 20:48N 48°32' W 123°01'0 0.0
2017-Sep-23 20:24N 48°32' W 123°01'0 0.0
2017-Sep-23 19:42N 48°32' W 123°01'7 0.2
2017-Sep-21 22:12N 48°31' W 122°51'316.4
2017-Sep-21 22:00N 48°34' W 122°52'611.9
2017-Sep-21 21:30N 48°32' W 123°01'0 0.1
2017-Sep-21 20:55N 48°32' W 123°01'0 0.0
2017-Sep-21 20:19N 48°32' W 123°01'0 0.0
2017-Sep-21 19:55N 48°32' W 123°01'0 0.0
2017-Sep-21 19:30N 48°32' W 123°01'5 9.8
2017-Sep-21 19:00N 48°28' W 122°57'6 0.3
2017-Sep-20 22:20N 48°28' W 122°48'3 6.9
2017-Sep-20 21:52N 48°31' W 122°51'513.2
2017-Sep-20 21:30N 48°35' W 122°54'510.1
2017-Sep-20 21:00N 48°32' W 123°01'0 0.5
2017-Sep-20 20:25N 48°32' W 123°01'0 0.0
2017-Sep-20 19:52N 48°32' W 123°01'0 0.0
2017-Sep-20 19:28N 48°32' W 123°01'0 0.0
2017-Sep-20 19:00N 48°32' W 123°01'4 8.7
2017-Sep-20 18:30N 48°28' W 122°58'4 7.7
2017-Sep-20 17:57N 48°28' W 123°04'8 0.4
2017-Sep-19 21:11N 48°24' W 122°55'317.5
2017-Sep-19 20:59N 48°27' W 122°57'612.8
2017-Sep-19 20:30N 48°32' W 122°60'1 1.5
2017-Sep-19 19:59N 48°32' W 123°01'0 0.0
2017-Sep-19 19:29N 48°32' W 123°01'0 0.0
2017-Sep-19 18:50N 48°32' W 123°01'0 0.0
2017-Sep-19 18:23N 48°32' W 123°01'3 8.0
2017-Sep-19 17:59N 48°31' W 122°57'611.6
2017-Sep-19 17:29N 48°25' W 122°54'31 1.4
2017-Sep-18 19:22N 47°57' W 122°35'1 2.0
2017-Sep-18 19:00N 47°56' W 122°34'1 1.2
2017-Sep-18 18:29N 47°56' W 122°35'  

Dump ship's entire track history